createdAt,value
2018-06-03T00:01:24.058Z,95672.00
2018-06-03T00:04:04.454Z,95672.00
2018-06-03T00:06:44.515Z,95669.00
2018-06-03T00:09:24.151Z,95666.00
2018-06-03T00:12:03.071Z,95663.00
2018-06-03T00:14:42.097Z,95670.00
2018-06-03T00:17:21.443Z,95667.00
2018-06-03T00:20:01.383Z,95669.00
2018-06-03T00:22:40.515Z,95672.00
2018-06-03T00:25:20.470Z,95668.00
2018-06-03T00:28:00.211Z,95674.00
2018-06-03T00:30:41.098Z,95676.00
2018-06-03T00:33:20.315Z,95674.00
2018-06-03T00:36:11.117Z,95678.00
2018-06-03T00:38:50.295Z,95675.00
2018-06-03T00:41:30.700Z,95674.00
2018-06-03T00:44:10.754Z,95673.00
2018-06-03T00:46:51.015Z,95674.00
2018-06-03T00:49:29.540Z,95665.00
2018-06-03T00:52:08.878Z,95664.00
2018-06-03T00:54:48.721Z,95666.00
2018-06-03T00:57:28.260Z,95670.00
2018-06-03T01:00:07.792Z,95663.00
2018-06-03T01:02:50.003Z,95666.00
2018-06-03T01:05:30.052Z,95665.00
2018-06-03T01:08:12.869Z,95666.00
2018-06-03T01:10:53.222Z,95665.00
2018-06-03T01:13:33.083Z,95671.00
2018-06-03T01:16:13.030Z,95670.00
2018-06-03T01:18:52.106Z,95664.00
2018-06-03T01:21:32.682Z,95676.00
2018-06-03T01:24:12.059Z,95672.00
2018-06-03T01:26:52.223Z,95669.00
2018-06-03T01:29:31.744Z,95666.00
2018-06-03T01:32:12.034Z,95663.00
2018-06-03T01:34:53.188Z,95666.00
2018-06-03T01:37:32.927Z,95662.00
2018-06-03T01:40:12.364Z,95662.00
2018-06-03T01:42:52.932Z,95657.00
2018-06-03T01:45:31.749Z,95651.00
2018-06-03T01:48:11.086Z,95651.00
2018-06-03T01:50:51.246Z,95648.00
2018-06-03T01:53:30.575Z,95651.00
2018-06-03T01:56:10.940Z,95646.00
2018-06-03T01:58:50.478Z,95644.00
2018-06-03T02:01:30.227Z,95645.00
2018-06-03T02:04:10.014Z,95634.00
2018-06-03T02:06:49.599Z,95639.00
2018-06-03T02:09:30.064Z,95636.00
2018-06-03T02:12:10.787Z,95635.00
2018-06-03T02:14:51.200Z,95629.00
2018-06-03T02:17:30.735Z,95629.00
2018-06-03T02:20:10.280Z,95628.00
2018-06-03T02:22:49.706Z,95629.00
2018-06-03T02:25:30.074Z,95629.00
2018-06-03T02:28:09.517Z,95623.00
2018-06-03T02:30:48.845Z,95624.00
2018-06-03T02:33:28.432Z,95623.00
2018-06-03T02:36:07.725Z,95619.00
2018-06-03T02:38:47.265Z,95622.00
2018-06-03T02:41:27.185Z,95620.00
2018-06-03T02:44:06.229Z,95620.00
2018-06-03T02:46:46.091Z,95620.00
2018-06-03T02:49:26.855Z,95624.00
2018-06-03T02:52:06.182Z,95619.00
2018-06-03T02:54:45.525Z,95620.00
2018-06-03T02:57:25.272Z,95624.00
2018-06-03T03:00:04.243Z,95618.00
2018-06-03T03:02:44.154Z,95620.00
2018-06-03T03:05:23.997Z,95619.00
2018-06-03T03:08:04.351Z,95611.00
2018-06-03T03:10:42.969Z,95612.00
2018-06-03T03:13:22.319Z,95620.00
2018-06-03T03:16:01.850Z,95617.00
2018-06-03T03:18:41.293Z,95617.00
2018-06-03T03:21:20.409Z,95624.00
2018-06-03T03:24:00.059Z,95620.00
2018-06-03T03:26:39.389Z,95624.00
2018-06-03T03:29:18.661Z,95624.00
2018-06-03T03:31:58.483Z,95624.00
2018-06-03T03:34:36.984Z,95620.00
2018-06-03T03:37:16.323Z,95621.00
2018-06-03T03:39:56.374Z,95624.00
2018-06-03T03:42:35.718Z,95629.00
2018-06-03T03:45:15.104Z,95631.00
2018-06-03T03:47:54.573Z,95634.00
2018-06-03T03:50:36.170Z,95635.00
2018-06-03T03:53:15.504Z,95632.00
2018-06-03T03:55:54.934Z,95634.00
2018-06-03T03:58:34.182Z,95632.00
2018-06-03T04:01:13.613Z,95639.00
2018-06-03T04:03:53.196Z,95638.00
2018-06-03T04:06:32.592Z,95638.00
2018-06-03T04:09:12.941Z,95643.00
2018-06-03T04:11:51.921Z,95642.00
2018-06-03T04:14:31.511Z,95644.00
2018-06-03T04:17:10.453Z,95642.00
2018-06-03T04:19:49.656Z,95652.00
2018-06-03T04:22:28.907Z,95648.00
2018-06-03T04:25:08.660Z,95648.00
2018-06-03T04:27:48.417Z,95653.00
2018-06-03T04:30:27.846Z,95652.00
2018-06-03T04:33:06.961Z,95651.00
2018-06-03T04:35:47.630Z,95656.00
2018-06-03T04:38:26.455Z,95663.00
2018-06-03T04:41:06.344Z,95656.00
2018-06-03T04:43:45.882Z,95657.00
2018-06-03T04:46:25.462Z,95659.00
2018-06-03T04:49:05.241Z,95657.00
2018-06-03T04:51:44.770Z,95656.00
2018-06-03T04:54:24.932Z,95652.00
2018-06-03T04:57:05.298Z,95649.00
2018-06-03T04:59:44.829Z,95644.00
2018-06-03T05:02:24.570Z,95643.00
2018-06-03T05:05:04.103Z,95645.00
2018-06-03T05:07:43.749Z,95642.00
2018-06-03T05:10:23.387Z,95645.00
2018-06-03T05:13:02.922Z,95645.00
2018-06-03T05:15:42.684Z,95646.00
2018-06-03T05:18:23.452Z,95639.00
2018-06-03T05:21:01.643Z,95641.00
2018-06-03T05:23:42.216Z,95644.00
2018-06-03T05:26:21.449Z,95644.00
2018-06-03T05:29:00.792Z,95645.00
2018-06-03T05:31:40.226Z,95645.00
2018-06-03T05:34:19.865Z,95647.00
2018-06-03T05:37:00.343Z,95653.00
2018-06-03T05:39:40.584Z,95649.00
2018-06-03T05:42:25.170Z,95645.00
2018-06-03T05:45:05.338Z,95641.00
2018-06-03T05:47:45.954Z,95637.00
2018-06-03T05:50:25.557Z,95645.00
2018-06-03T05:53:06.271Z,95637.00
2018-06-03T05:55:44.892Z,95638.00
2018-06-03T05:58:25.149Z,95637.00
2018-06-03T06:01:03.970Z,95633.00
2018-06-03T06:03:45.549Z,95634.00
2018-06-03T06:06:24.890Z,95636.00
2018-06-03T06:09:06.615Z,95634.00
2018-06-03T06:11:46.318Z,95637.00
2018-06-03T06:14:25.970Z,95631.00
2018-06-03T06:17:04.584Z,95631.00
2018-06-03T06:19:43.917Z,95630.00
2018-06-03T06:22:23.979Z,95627.00
2018-06-03T06:25:08.838Z,95628.00
2018-06-03T06:27:49.762Z,95630.00
2018-06-03T06:30:28.215Z,95628.00
2018-06-03T06:33:08.900Z,95627.00
2018-06-03T06:35:51.510Z,95630.00
2018-06-03T06:38:31.454Z,95627.00
2018-06-03T06:41:12.014Z,95627.00
2018-06-03T06:43:52.173Z,95626.00
2018-06-03T06:46:30.793Z,95623.00
2018-06-03T06:49:10.948Z,95618.00
2018-06-03T06:51:50.902Z,95619.00
2018-06-03T06:54:31.362Z,95615.00
2018-06-03T06:57:10.583Z,95616.00
2018-06-03T06:59:51.768Z,95615.00
2018-06-03T07:02:30.487Z,95609.00
2018-06-03T07:05:09.715Z,95608.00
2018-06-03T07:07:50.087Z,95605.00
2018-06-03T07:10:29.626Z,95607.00
2018-06-03T07:13:09.715Z,95605.00
2018-06-03T07:15:49.214Z,95601.00
2018-06-03T07:18:30.295Z,95598.00
2018-06-03T07:21:09.931Z,95597.00
2018-06-03T07:23:49.269Z,95592.00
2018-06-03T07:26:28.648Z,95588.00
2018-06-03T07:29:08.351Z,95584.00
2018-06-03T07:31:48.302Z,95582.00
2018-06-03T07:34:31.530Z,95579.00
2018-06-03T07:37:10.995Z,95576.00
2018-06-03T07:39:51.431Z,95571.00
2018-06-03T07:42:31.158Z,95569.00
2018-06-03T07:45:15.537Z,95565.00
2018-06-03T07:47:54.852Z,95556.00
2018-06-03T07:50:33.941Z,95551.00
2018-06-03T07:53:13.525Z,95546.00
2018-06-03T07:55:53.486Z,95542.00
2018-06-03T07:58:33.135Z,95546.00
2018-06-03T08:01:12.556Z,95540.00
2018-06-03T08:03:52.108Z,95542.00
2018-06-03T08:06:35.024Z,95543.00
2018-06-03T08:09:14.453Z,95538.00
2018-06-03T08:11:54.202Z,95532.00
2018-06-03T08:14:37.635Z,95540.00
2018-06-03T08:17:17.058Z,95533.00
2018-06-03T08:19:56.301Z,95528.00
2018-06-03T08:22:38.706Z,95533.00
2018-06-03T08:25:18.141Z,95527.00
2018-06-03T08:27:57.793Z,95530.00
2018-06-03T08:30:40.498Z,95528.00
2018-06-03T08:33:23.116Z,95533.00
2018-06-03T08:36:14.448Z,95530.00
2018-06-03T08:38:56.420Z,95528.00
2018-06-03T08:41:36.390Z,95525.00
2018-06-03T08:44:16.217Z,95525.00
2018-06-03T08:46:58.826Z,95530.00
2018-06-03T08:49:38.472Z,95526.00
2018-06-03T08:52:17.811Z,95528.00
2018-06-03T08:54:57.139Z,95516.00
2018-06-03T08:57:36.377Z,95509.00
2018-06-03T09:00:15.708Z,95502.00
2018-06-03T09:02:55.471Z,95505.00
2018-06-03T09:05:36.734Z,95496.00
2018-06-03T09:08:17.296Z,95495.00
2018-06-03T09:10:56.523Z,95491.00
2018-06-03T09:13:36.476Z,95489.00
2018-06-03T09:16:15.868Z,95488.00
2018-06-03T09:18:55.770Z,95487.00
2018-06-03T09:21:35.610Z,95477.00
2018-06-03T09:24:14.957Z,95477.00
2018-06-03T09:26:54.683Z,95480.00
2018-06-03T09:29:34.955Z,95478.00
2018-06-03T09:32:14.700Z,95473.00
2018-06-03T09:34:56.171Z,95467.00
2018-06-03T09:37:36.126Z,95463.00
2018-06-03T09:40:15.353Z,95461.00
2018-06-03T09:42:55.007Z,95457.00
2018-06-03T09:45:35.313Z,95455.00
2018-06-03T09:48:15.122Z,95449.00
2018-06-03T09:50:55.787Z,95448.00
2018-06-03T09:53:35.618Z,95443.00
2018-06-03T09:56:15.286Z,95435.00
2018-06-03T09:58:55.447Z,95433.00
2018-06-03T10:01:35.586Z,95435.00
2018-06-03T10:04:17.288Z,95432.00
2018-06-03T10:06:57.328Z,95429.00
2018-06-03T10:09:36.968Z,95422.00
2018-06-03T10:12:18.208Z,95418.00
2018-06-03T10:15:04.740Z,95415.00
2018-06-03T10:17:45.461Z,95418.00
2018-06-03T10:20:25.861Z,95408.00
2018-06-03T10:23:05.819Z,95403.00
2018-06-03T10:25:47.917Z,95392.00
2018-06-03T10:28:34.638Z,95395.00
2018-06-03T10:31:14.279Z,95384.00
2018-06-03T10:33:55.336Z,95384.00
2018-06-03T10:36:34.977Z,95385.00
2018-06-03T10:39:14.311Z,95381.00
2018-06-03T10:41:54.268Z,95375.00
2018-06-03T10:44:33.919Z,95371.00
2018-06-03T10:47:12.949Z,95365.00
2018-06-03T10:49:52.684Z,95365.00
2018-06-03T10:52:32.101Z,95363.00
2018-06-03T10:55:11.697Z,95360.00
2018-06-03T10:57:53.286Z,95362.00
2018-06-03T11:00:32.863Z,95356.00
2018-06-03T11:03:13.061Z,95355.00
2018-06-03T11:05:52.483Z,95347.00
2018-06-03T11:08:34.472Z,95341.00
2018-06-03T11:11:33.986Z,95337.00
2018-06-03T11:14:13.993Z,95328.00
2018-06-03T11:16:53.907Z,95323.00
2018-06-03T11:19:33.424Z,95327.00
2018-06-03T11:22:13.488Z,95322.00
2018-06-03T11:24:53.539Z,95322.00
2018-06-03T11:27:38.099Z,95318.00
2018-06-03T11:30:21.128Z,95316.00
2018-06-03T11:33:10.807Z,95309.00
2018-06-03T11:35:51.160Z,95313.00
2018-06-03T11:38:32.139Z,95310.00
2018-06-03T11:41:11.781Z,95304.00
2018-06-03T11:43:53.763Z,95302.00
2018-06-03T11:46:34.441Z,95296.00
2018-06-03T11:49:14.823Z,95298.00
2018-06-03T11:51:54.239Z,95292.00
2018-06-03T11:54:36.875Z,95294.00
2018-06-03T11:57:15.780Z,95289.00
2018-06-03T11:59:58.799Z,95282.00
2018-06-03T12:02:40.079Z,95288.00
2018-06-03T12:05:20.019Z,95283.00
2018-06-03T12:07:59.959Z,95282.00
2018-06-03T12:10:40.443Z,95276.00
2018-06-03T12:13:20.681Z,95272.00
2018-06-03T12:16:00.880Z,95269.00
2018-06-03T12:18:43.560Z,95262.00
2018-06-03T12:21:22.774Z,95263.00
2018-06-03T12:24:02.529Z,95265.00
2018-06-03T12:26:44.631Z,95254.00
2018-06-03T12:29:24.698Z,95256.00
2018-06-03T12:32:03.811Z,95249.00
2018-06-03T12:34:43.343Z,95240.00
2018-06-03T12:37:23.604Z,95238.00
2018-06-03T12:40:03.459Z,95235.00
2018-06-03T12:42:43.299Z,95231.00
2018-06-03T12:45:22.959Z,95230.00
2018-06-03T12:50:48.420Z,95215.00
2018-06-03T12:53:27.926Z,95213.00
2018-06-03T12:56:07.367Z,95208.00
2018-06-03T12:58:45.958Z,95204.00
2018-06-03T13:01:26.248Z,95199.00
2018-06-03T13:04:05.322Z,95200.00
2018-06-03T13:06:45.397Z,95192.00
2018-06-03T13:09:25.144Z,95187.00
2018-06-03T13:12:04.887Z,95184.00
2018-06-03T13:14:44.659Z,95187.00
2018-06-03T13:17:24.403Z,95184.00
2018-06-03T13:20:03.825Z,95180.00
2018-06-03T13:22:45.930Z,95176.00
2018-06-03T13:25:25.987Z,95167.00
2018-06-03T13:28:05.527Z,95169.00
2018-06-03T13:30:44.859Z,95168.00
2018-06-03T13:33:24.600Z,95162.00
2018-06-03T13:36:04.541Z,95158.00
2018-06-03T13:38:44.075Z,95162.00
2018-06-03T13:41:23.617Z,95155.00
2018-06-03T13:44:03.106Z,95156.00
2018-06-03T13:46:42.811Z,95149.00
2018-06-03T13:49:21.938Z,95151.00
2018-06-03T13:52:02.508Z,95144.00
2018-06-03T13:54:42.980Z,95138.00
2018-06-03T13:57:22.088Z,95135.00
2018-06-03T14:00:01.830Z,95137.00
2018-06-03T14:02:41.700Z,95132.00
2018-06-03T14:05:20.503Z,95133.00
2018-06-03T14:07:59.219Z,95129.00
2018-06-03T14:10:38.554Z,95124.00
2018-06-03T14:13:18.205Z,95128.00
2018-06-03T14:15:57.533Z,95132.00
2018-06-03T14:18:36.778Z,95128.00
2018-06-03T14:21:16.189Z,95120.00
2018-06-03T14:23:56.480Z,95115.00
2018-06-03T14:26:36.379Z,95110.00
2018-06-03T14:29:16.062Z,95118.00
2018-06-03T14:31:55.852Z,95111.00
2018-06-03T14:34:35.361Z,95112.00
2018-06-03T14:37:14.580Z,95113.00
2018-06-03T14:39:54.273Z,95112.00
2018-06-03T14:42:35.509Z,95104.00
2018-06-03T14:45:15.246Z,95112.00
2018-06-03T14:47:55.527Z,95106.00
2018-06-03T14:50:35.248Z,95106.00
2018-06-03T14:53:15.239Z,95108.00
2018-06-03T14:55:55.346Z,95110.00
2018-06-03T14:58:34.459Z,95107.00
2018-06-03T15:01:14.910Z,95111.00
2018-06-03T15:03:54.332Z,95108.00
2018-06-03T15:06:34.066Z,95102.00
2018-06-03T15:09:13.829Z,95108.00
2018-06-03T15:11:53.768Z,95100.00
2018-06-03T15:14:33.317Z,95103.00
2018-06-03T15:17:12.757Z,95106.00
2018-06-03T15:19:52.083Z,95105.00
2018-06-03T15:22:31.545Z,95092.00
2018-06-03T15:25:11.185Z,95102.00
2018-06-03T15:27:50.450Z,95105.00
2018-06-03T15:30:30.286Z,95098.00
2018-06-03T15:33:09.921Z,95104.00
2018-06-03T15:35:50.723Z,95103.00
2018-06-03T15:38:29.731Z,95093.00
2018-06-03T15:41:09.383Z,95091.00
2018-06-03T15:43:48.684Z,95088.00
2018-06-03T15:46:27.734Z,95086.00
2018-06-03T15:49:07.205Z,95090.00
2018-06-03T15:51:49.188Z,95076.00
2018-06-03T15:54:30.583Z,95082.00
2018-06-03T15:57:10.123Z,95074.00
2018-06-03T15:59:49.345Z,95066.00
2018-06-03T16:02:28.900Z,95064.00
2018-06-03T16:05:08.531Z,95067.00
2018-06-03T16:07:48.494Z,95069.00
2018-06-03T16:10:28.426Z,95062.00
2018-06-03T16:13:08.170Z,95057.00
2018-06-03T16:15:47.427Z,95063.00
2018-06-03T16:18:27.269Z,95061.00
2018-06-03T16:21:06.595Z,95060.00
2018-06-03T16:23:46.240Z,95052.00
2018-06-03T16:26:25.793Z,95054.00
2018-06-03T16:29:04.896Z,95057.00
2018-06-03T16:31:44.589Z,95056.00
2018-06-03T16:34:24.093Z,95059.00
2018-06-03T16:37:02.965Z,95058.00
2018-06-03T16:39:42.496Z,95053.00
2018-06-03T16:42:22.078Z,95054.00
2018-06-03T16:45:01.658Z,95055.00
2018-06-03T16:47:41.466Z,95053.00
2018-06-03T16:50:21.877Z,95057.00
2018-06-03T16:53:01.575Z,95049.00
2018-06-03T16:55:41.008Z,95055.00
2018-06-03T16:58:20.744Z,95049.00
2018-06-03T17:01:00.615Z,95059.00
2018-06-03T17:03:40.246Z,95055.00
2018-06-03T17:06:20.587Z,95055.00
2018-06-03T17:09:01.686Z,95055.00
2018-06-03T17:11:41.725Z,95060.00
2018-06-03T17:14:22.287Z,95055.00
2018-06-03T17:17:01.825Z,95045.00
2018-06-03T17:19:41.785Z,95047.00
2018-06-03T17:22:21.125Z,95045.00
2018-06-03T17:25:00.747Z,95042.00
2018-06-03T17:27:40.314Z,95049.00
2018-06-03T17:30:19.827Z,95050.00
2018-06-03T17:33:00.174Z,95041.00
2018-06-03T17:35:40.550Z,95045.00
2018-06-03T17:38:18.872Z,95044.00
2018-06-03T17:40:58.623Z,95046.00
2018-06-03T17:43:41.549Z,95045.00
2018-06-03T17:46:21.881Z,95042.00
2018-06-03T17:49:09.008Z,95043.00
2018-06-03T17:51:48.243Z,95040.00
2018-06-03T17:54:27.483Z,95040.00
2018-06-03T17:57:08.132Z,95042.00
2018-06-03T17:59:48.389Z,95041.00
2018-06-03T18:02:28.540Z,95040.00
2018-06-03T18:05:09.286Z,95037.00
2018-06-03T18:07:49.464Z,95039.00
2018-06-03T18:10:31.311Z,95040.00
2018-06-03T18:13:12.104Z,95041.00
2018-06-03T18:15:51.773Z,95038.00
2018-06-03T18:18:30.900Z,95034.00
2018-06-03T18:21:14.017Z,94985.00
2018-06-03T18:23:53.681Z,95040.00
2018-06-03T18:26:36.062Z,95044.00
2018-06-03T18:29:16.949Z,95042.00
2018-06-03T18:31:59.346Z,95046.00
2018-06-03T18:34:38.605Z,95040.00
2018-06-03T18:37:18.241Z,95043.00
2018-06-03T18:39:58.281Z,95045.00
2018-06-03T18:42:38.540Z,95041.00
2018-06-03T18:45:18.377Z,95039.00
2018-06-03T18:47:58.022Z,95040.00
2018-06-03T18:50:38.282Z,95042.00
2018-06-03T18:53:18.120Z,95041.00
2018-06-03T18:55:58.284Z,95044.00
2018-06-03T18:58:38.855Z,95042.00
2018-06-03T19:01:19.421Z,95047.00
2018-06-03T19:03:59.892Z,95048.00
2018-06-03T19:06:39.097Z,95052.00
2018-06-03T19:09:18.850Z,95054.00
2018-06-03T19:11:58.494Z,95057.00
2018-06-03T19:14:38.468Z,95060.00
2018-06-03T19:17:17.062Z,95062.00
2018-06-03T19:19:57.003Z,95062.00
2018-06-03T19:22:36.644Z,95069.00
2018-06-03T19:25:16.083Z,95069.00
2018-06-03T19:28:33.414Z,95070.00
2018-06-03T19:31:13.030Z,95073.00
2018-06-03T19:33:53.206Z,95076.00
2018-06-03T19:36:32.861Z,95080.00
2018-06-03T19:39:13.520Z,95077.00
2018-06-03T19:41:53.367Z,95084.00
2018-06-03T19:44:32.705Z,95080.00
2018-06-03T19:47:15.514Z,95075.00
2018-06-03T19:49:55.055Z,95078.00
2018-06-03T19:52:34.615Z,95082.00
2018-06-03T19:55:14.859Z,95079.00
2018-06-03T19:57:54.300Z,95077.00
2018-06-03T20:00:33.840Z,95074.00
2018-06-03T20:03:13.700Z,95079.00
2018-06-03T20:05:53.629Z,95082.00
2018-06-03T20:08:33.648Z,95081.00
2018-06-03T20:11:15.987Z,95091.00
2018-06-03T20:13:57.681Z,95091.00
2018-06-03T20:16:38.751Z,95093.00
2018-06-03T20:19:19.517Z,95093.00
2018-06-03T20:21:59.985Z,95089.00
2018-06-03T20:24:40.994Z,95091.00
2018-06-03T20:27:21.219Z,95084.00
2018-06-03T20:30:02.398Z,95081.00
2018-06-03T20:32:41.940Z,95084.00
2018-06-03T20:35:22.187Z,95082.00
2018-06-03T20:38:01.733Z,95084.00
2018-06-03T20:40:41.280Z,95087.00
2018-06-03T20:43:21.027Z,95083.00
2018-06-03T20:46:00.468Z,95082.00
2018-06-03T20:48:40.201Z,95085.00
2018-06-03T20:51:20.299Z,95091.00
2018-06-03T20:54:00.519Z,95095.00
2018-06-03T20:56:40.581Z,95092.00
2018-06-03T20:59:21.739Z,95094.00
2018-06-03T21:02:02.000Z,95093.00
2018-06-03T21:04:42.779Z,95093.00
2018-06-03T21:07:23.218Z,95093.00
2018-06-03T21:10:04.904Z,95100.00
2018-06-03T21:12:45.374Z,95099.00
2018-06-03T21:15:25.341Z,95100.00
2018-06-03T21:18:06.218Z,95101.00
2018-06-03T21:20:47.775Z,95097.00
2018-06-03T21:23:27.726Z,95104.00
2018-06-03T21:26:06.979Z,95100.00
2018-06-03T21:28:48.361Z,95095.00
2018-06-03T21:31:27.935Z,95094.00
2018-06-03T21:34:09.481Z,95097.00
2018-06-03T21:36:49.641Z,95100.00
2018-06-03T21:39:29.982Z,95103.00
2018-06-03T21:42:09.244Z,95102.00
2018-06-03T21:44:49.082Z,95104.00
2018-06-03T21:47:28.320Z,95105.00
2018-06-03T21:50:09.042Z,95107.00
2018-06-03T21:52:48.821Z,95104.00
2018-06-03T21:55:28.889Z,95103.00
2018-06-03T21:58:08.219Z,95100.00
2018-06-03T22:00:48.064Z,95093.00
2018-06-03T22:03:27.691Z,95101.00
2018-06-03T22:06:07.021Z,95099.00
2018-06-03T22:08:47.600Z,95106.00
2018-06-03T22:11:27.976Z,95112.00
2018-06-03T22:14:07.599Z,95113.00
2018-06-03T22:16:46.863Z,95109.00
2018-06-03T22:19:28.421Z,95117.00
2018-06-03T22:22:08.355Z,95111.00
2018-06-03T22:24:47.900Z,95108.00
2018-06-03T22:27:27.359Z,95105.00
2018-06-03T22:30:06.266Z,95107.00
2018-06-03T22:32:45.620Z,95112.00
2018-06-03T22:35:25.261Z,95114.00
2018-06-03T22:38:05.520Z,95108.00
2018-06-03T22:40:45.550Z,95111.00
2018-06-03T22:43:25.398Z,95111.00
2018-06-03T22:46:05.461Z,95114.00
2018-06-03T22:48:44.699Z,95108.00
2018-06-03T22:51:24.016Z,95107.00
2018-06-03T22:54:03.044Z,95105.00
2018-06-03T22:58:01.233Z,95103.00
2018-06-03T23:00:39.348Z,95108.00
2018-06-03T23:03:20.106Z,95107.00
2018-06-03T23:05:59.841Z,95102.00
2018-06-03T23:08:40.939Z,95107.00
2018-06-03T23:11:21.791Z,95106.00
2018-06-03T23:14:03.173Z,95102.00
2018-06-03T23:16:43.048Z,95101.00
2018-06-03T23:19:22.677Z,95107.00
2018-06-03T23:22:02.210Z,95104.00
2018-06-03T23:24:43.981Z,95106.00
2018-06-03T23:27:23.949Z,95102.00
2018-06-03T23:30:03.908Z,95099.00
2018-06-03T23:32:44.281Z,95095.00
2018-06-03T23:35:23.899Z,95094.00
2018-06-03T23:38:03.955Z,95093.00
2018-06-03T23:40:44.740Z,95098.00
2018-06-03T23:43:23.368Z,95095.00
2018-06-03T23:46:04.221Z,95102.00
2018-06-03T23:48:44.058Z,95101.00
2018-06-03T23:51:23.822Z,95091.00
2018-06-03T23:54:02.424Z,95096.00
2018-06-03T23:56:40.840Z,95093.00
2018-06-03T23:59:19.959Z,95092.00
